Latest Coastal Weather Observations for Rowley Shoals

IDW60701

Issued at 1:35 am WST Friday 31 October 2014 (issued every 10 minutes, with the page automatically refreshed every 10 minutes)

About coastal observations | Map of coastal stations | Coastal observations for WA | Marine services | Other Formats
Station Details ID: 200713 Name: ROWLEY SHOALS Lat: -17.52 Lon: 118.95 Height: 0.0 m
Data from the previous 72 hours. | See also: Recent months for locations in Western Australia
Date/Time
WST
Temp

°C
Wind Pressure Rain
since 9am
mm
Weather Cloud Vis
km
Sea
Height
m
Swell
Dir
 
Speed
knots
Gust
knots
hPa Trend Height
m
Period
s
Dir
31/01:30am - WSW 15 17 1007.4 - - - - - - - - -
31/01:00am - WSW 16 18 1007.5 - - - - - - - - -
31/12:30am - WSW 15 17 1007.8 - - - - - - - - -
31/12:00am - WSW 15 17 1008.2 - - - - - - - - -
 
Date/Time
WST
Temp

°C
Wind Pressure Rain
since 9am
mm
Weather Cloud Vis
km
Sea
Height
m
Swell
Dir
 
Speed
knots
Gust
knots
hPa Trend Height
m
Period
s
Dir
30/11:30pm - WSW 15 17 1008.4 - - - - - - - - -
30/11:00pm - WSW 15 17 1008.8 - - - - - - - - -
30/10:30pm - WSW 15 17 1009.2 - - - - - - - - -
30/10:00pm - WSW 15 17 1009.3 - - - - - - - - -
30/09:30pm - W 14 16 1009.5 - - - - - - - - -
30/09:00pm - W 14 15 1009.3 - - - - - - - - -
30/08:30pm - W 14 15 1009.3 - - - - - - - - -
30/08:00pm - W 14 15 1009.2 - - - - - - - - -
30/07:30pm - W 13 15 1009.0 - - - - - - - - -
30/07:00pm - W 13 15 1008.8 - - - - - - - - -
30/06:30pm - WSW 13 15 1008.3 - - - - - - - - -
30/06:00pm - WSW 13 15 1008.1 - - - - - - - - -
30/05:30pm - WSW 13 15 1007.9 - - - - - - - - -
30/05:00pm - WSW 13 15 1007.8 - - - - - - - - -
30/04:30pm - WSW 12 14 1007.7 - - - - - - - - -
30/04:00pm - WSW 13 14 1007.6 - - - - - - - - -
30/03:30pm - WSW 13 15 1007.6 - - - - - - - - -
30/03:00pm - WSW 12 14 1007.8 - - - - - - - - -
30/02:30pm - WSW 13 14 1008.0 - - - - - - - - -
30/02:00pm - WSW 12 14 1008.2 - - - - - - - - -
30/01:30pm - WSW 12 14 1008.5 - - - - - - - - -
30/01:00pm - WSW 12 14 1008.6 - - - - - - - - -
30/12:30pm - WSW 13 14 1009.0 - - - - - - - - -
30/12:00pm - WSW 13 14 1009.3 - - - - - - - - -
30/11:30am - SW 13 14 1009.5 - - - - - - - - -
30/11:00am - SW 13 15 1009.7 - - - - - - - - -
30/10:30am - WSW 13 15 1009.9 - - - - - - - - -
30/10:00am - WSW 13 15 1010.1 - - - - - - - - -
30/09:30am - WSW 12 14 1010.4 - - - - - - - - -
30/09:00am - WSW 13 15 1010.5 - - - - - - - - -
30/08:30am - SW 14 16 1010.6 - - - - - - - - -
30/08:00am - SW 14 16 1010.5 - - - - - - - - -
30/07:30am - SW 13 15 1010.4 - - - - - - - - -
30/07:00am - SW 13 15 1010.3 - - - - - - - - -
30/06:30am - SW 13 15 1010.0 - - - - - - - - -
30/06:00am - SW 13 15 1009.8 - - - - - - - - -
30/05:30am - SW 13 15 1009.6 - - - - - - - - -
30/05:00am - WSW 11 12 1009.5 - - - - - - - - -
30/04:30am - WSW 13 14 1009.3 - - - - - - - - -
30/04:00am - WSW 12 14 1009.4 - - - - - - - - -
30/03:30am - WSW 11 13 1009.2 - - - - - - - - -
30/03:00am - WSW 11 13 1009.2 - - - - - - - - -
30/02:30am - W 11 13 1009.1 - - - - - - - - -
30/02:00am - W 11 13 1009.3 - - - - - - - - -
30/01:30am - W 11 12 1009.7 - - - - - - - - -
30/01:00am - W 11 13 1009.9 - - - - - - - - -
30/12:30am - W 11 13 1010.2 - - - - - - - - -
30/12:00am - W 10 12 1010.4 - - - - - - - - -
 
Date/Time
WST
Temp

°C
Wind Pressure Rain
since 9am
mm
Weather Cloud Vis
km
Sea
Height
m
Swell
Dir
 
Speed
knots
Gust
knots
hPa Trend Height
m
Period
s
Dir
29/11:30pm - WNW 11 13 1010.6 - - - - - - - - -
29/11:00pm - W 11 12 1010.8 - - - - - - - - -
29/10:30pm - W 12 15 1010.9 - - - - - - - - -
29/10:00pm - W 9 10 1011.4 - - - - - - - - -
29/09:30pm - W 8 9 1011.5 - - - - - - - - -
29/09:00pm - W 9 11 1011.5 - - - - - - - - -
29/08:30pm - W 8 9 1011.6 - - - - - - - - -
29/08:00pm - W 9 9 1011.4 - - - - - - - - -
29/07:30pm - W 7 8 1011.2 - - - - - - - - -
29/07:00pm - W 7 8 1011.0 - - - - - - - - -
29/06:30pm - W 8 8 1010.8 - - - - - - - - -
29/06:00pm - W 7 9 1010.7 - - - - - - - - -
29/05:30pm - W 8 9 1010.4 - - - - - - - - -
29/05:00pm - WSW 8 10 1010.2 - - - - - - - - -
29/04:30pm - WSW 9 10 1010.1 - - - - - - - - -
29/04:00pm - WSW 11 12 1010.2 - - - - - - - - -
29/03:30pm - W 10 11 1010.2 - - - - - - - - -
29/03:00pm - W 9 11 1010.4 - - - - - - - - -
29/02:30pm - NW 7 8 1010.4 - - - - - - - - -
29/02:00pm - NW 7 9 1010.4 - - - - - - - - -
29/01:30pm - NNW 7 8 1010.7 - - - - - - - - -
29/01:00pm - NNW 6 8 1010.9 - - - - - - - - -
29/12:30pm - NNW 6 7 1011.3 - - - - - - - - -
29/12:00pm - NW 5 6 1011.5 - - - - - - - - -
29/11:30am - WNW 4 5 1011.8 - - - - - - - - -
29/11:00am - NW 4 6 1012.0 - - - - - - - - -
29/10:30am - W 5 6 1012.1 - - - - - - - - -
29/10:00am - WNW 4 5 1012.3 - - - - - - - - -
29/09:30am - ESE 2 4 1012.8 - - - - - - - - -
29/09:00am - S 1 4 1012.8 - - - - - - - - -
29/08:30am - S 5 7 1012.8 - - - - - - - - -
29/08:00am - S 6 8 1012.7 - - - - - - - - -
29/07:30am - SSW 9 10 1012.4 - - - - - - - - -
29/07:00am - SW 10 13 1012.0 - - - - - - - - -
29/06:30am - SW 14 16 1011.9 - - - - - - - - -
29/06:00am - SSW 16 18 1011.6 - - - - - - - - -
29/05:30am - WSW 15 18 1010.9 - - - - - - - - -
29/05:00am - WSW 16 18 1010.7 - - - - - - - - -
29/04:30am - W 16 19 1010.5 - - - - - - - - -
29/04:00am - W 17 18 1010.3 - - - - - - - - -
29/03:30am - W 14 17 1010.2 - - - - - - - - -
29/03:00am - W 14 16 1010.0 - - - - - - - - -
29/02:30am - WNW 14 16 1010.1 - - - - - - - - -
29/02:00am - WNW 12 14 1010.1 - - - - - - - - -
29/01:30am - WNW 12 15 1010.1 - - - - - - - - -
29/01:00am - WNW 13 15 1010.2 - - - - - - - - -
29/12:30am - WNW 12 15 1010.3 - - - - - - - - -
29/12:00am - WNW 12 14 1010.4 - - - - - - - - -
 
Date/Time
WST
Temp

°C
Wind Pressure Rain
since 9am
mm
Weather Cloud Vis
km
Sea
Height
m
Swell
Dir
 
Speed
knots
Gust
knots
hPa Trend Height
m
Period
s
Dir
28/11:30pm - WNW 12 14 1010.7 - - - - - - - - -
28/11:00pm - WNW 12 15 1010.8 - - - - - - - - -
28/10:30pm - NW 12 14 1011.0 - - - - - - - - -
28/10:00pm - NNW 12 14 1011.0 - - - - - - - - -
28/09:30pm - NNW 12 13 1011.0 - - - - - - - - -
28/09:00pm - NNW 11 13 1011.1 - - - - - - - - -
28/08:30pm - NNW 11 13 1011.1 - - - - - - - - -
28/08:00pm - NNW 10 12 1010.8 - - - - - - - - -
28/07:30pm - NNW 10 12 1010.5 - - - - - - - - -
28/07:00pm - NNW 10 11 1010.3 - - - - - - - - -
28/06:30pm - NNW 10 11 1010.1 - - - - - - - - -
28/06:00pm - NNW 10 11 1010.0 - - - - - - - - -
28/05:30pm - NNW 9 11 1009.6 - - - - - - - - -
28/05:00pm - NNW 10 11 1009.6 - - - - - - - - -
28/04:30pm - NW 8 9 1009.2 - - - - - - - - -
28/04:00pm - NW 9 11 1009.1 - - - - - - - - -
28/03:30pm - NNW 9 11 1009.3 - - - - - - - - -
28/03:00pm - NNW 9 10 1009.6 - - - - - - - - -
28/02:30pm - N 10 12 1009.7 - - - - - - - - -
28/02:00pm - N 9 11 1009.9 - - - - - - - - -
28/01:30pm - N 11 12 1010.1 - - - - - - - - -
28/01:00pm - N 10 11 1010.0 - - - - - - - - -
28/12:30pm - NNW 12 14 1010.1 - - - - - - - - -
28/12:00pm - N 13 15 1010.3 - - - - - - - - -
28/11:30am - N 12 14 1010.8 - - - - - - - - -
28/11:00am - N 11 14 1011.0 - - - - - - - - -
28/10:30am - N 11 13 1011.3 - - - - - - - - -
28/10:00am - N 12 14 1011.2 - - - - - - - - -
28/09:30am - N 12 13 1011.2 - - - - - - - - -
28/09:00am - N 10 11 1011.3 - - - - - - - - -
28/08:30am - NNW 8 9 1011.0 - - - - - - - - -
28/08:00am - NNW 7 7 1010.9 - - - - - - - - -
28/07:30am - NNW 6 7 1010.6 - - - - - - - - -
28/07:00am - NW 6 6 1010.5 - - - - - - - - -
28/06:30am - W 6 7 1010.4 - - - - - - - - -
28/06:00am - W 9 11 1010.1 - - - - - - - - -
28/05:30am - WNW 10 11 1009.6 - - - - - - - - -
28/05:00am - WNW 12 13 1009.3 - - - - - - - - -
28/04:30am - NW 12 13 1008.8 - - - - - - - - -
28/04:00am - WNW 11 14 1008.7 - - - - - - - - -
28/03:30am - WNW 13 15 1008.5 - - - - - - - - -
28/03:00am - WNW 13 15 1008.3 - - - - - - - - -
28/02:30am - WNW 14 16 1008.3 - - - - - - - - -
28/02:00am - NW 13 15 1008.3 - - - - - - - - -

Other Formats:

Comma delimited format used in spreadsheet applications
http://www.bom.gov.au/fwo/IDW60701/IDW60701.94207.axf

JavaScript Object Notation format (JSON) in row-major order
http://www.bom.gov.au/fwo/IDW60701/IDW60701.94207.json